Annapolis, Indiana
Current Conditions -  °F | °C
As of 1:15 AM on Monday 22 Dec 2014 (Local Time) from KPRG Reporting Station
Clear Clear  
Wind Chill: 26°   Ceiling: Unl
Heat Index: 31°   Visibility: 7mi
Dew Point: 29°   Wind: 5mph
Humidity: 92%   Direction: 120°ESE
Pressure: 30.02"   Gusts: NA
Location:  39.8468°N, 87.2662°W
Report Text: KPRG 220615Z AUTO 12004KT 7SM CLR 00/M02 A3002 RMK AO2 T10051017
Loading
Personal Weather Stations






























Interactive Weather Map New forecast layout! Learn more

10-Day Weather Forecast

Advertisements
Track Severe Weather on mobile